sensor_id;sensor_type;location;lat;lon;timestamp;pressure;altitude;pressure_sealevel;temperature;humidity
11672;BME280;5892;43.412;24.612;2023-04-08T00:01:53;100306.25;;;6.40;87.83
11672;BME280;5892;43.412;24.612;2023-04-08T00:04:20;100321.13;;;6.58;88.83
11672;BME280;5892;43.412;24.612;2023-04-08T00:06:49;100317.31;;;6.59;88.27
11672;BME280;5892;43.412;24.612;2023-04-08T00:09:16;100316.72;;;6.62;87.97
11672;BME280;5892;43.412;24.612;2023-04-08T00:11:43;100312.91;;;6.63;87.63
11672;BME280;5892;43.412;24.612;2023-04-08T00:14:10;100311.19;;;6.72;87.21
11672;BME280;5892;43.412;24.612;2023-04-08T00:16:37;100244.47;;;6.07;87.08
11672;BME280;5892;43.412;24.612;2023-04-08T00:19:04;100241.16;;;6.10;87.22
11672;BME280;5892;43.412;24.612;2023-04-08T00:21:32;100298.91;;;6.41;87.83
11672;BME280;5892;43.412;24.612;2023-04-08T00:24:00;100253.59;;;6.21;87.34
11672;BME280;5892;43.412;24.612;2023-04-08T00:26:27;100311.31;;;6.57;87.64
11672;BME280;5892;43.412;24.612;2023-04-08T00:28:54;100230.00;;;6.11;86.76
11672;BME280;5892;43.412;24.612;2023-04-08T00:31:21;100314.84;;;6.57;87.16
11672;BME280;5892;43.412;24.612;2023-04-08T00:33:48;100255.28;;;6.17;87.09
11672;BME280;5892;43.412;24.612;2023-04-08T00:36:15;100310.81;;;6.50;87.46
11672;BME280;5892;43.412;24.612;2023-04-08T00:38:43;100269.38;;;6.19;87.65
11672;BME280;5892;43.412;24.612;2023-04-08T00:41:12;100230.16;;;5.91;87.96
11672;BME280;5892;43.412;24.612;2023-04-08T00:43:40;100229.34;;;5.90;88.35
11672;BME280;5892;43.412;24.612;2023-04-08T00:46:08;100313.06;;;6.43;87.89
11672;BME280;5892;43.412;24.612;2023-04-08T00:48:35;100278.22;;;6.39;87.40
11672;BME280;5892;43.412;24.612;2023-04-08T00:51:03;100309.22;;;6.49;88.61
11672;BME280;5892;43.412;24.612;2023-04-08T00:53:30;100280.28;;;6.19;88.99
11672;BME280;5892;43.412;24.612;2023-04-08T00:55:58;100282.47;;;6.17;88.85
11672;BME280;5892;43.412;24.612;2023-04-08T00:58:29;100310.44;;;6.27;89.40
11672;BME280;5892;43.412;24.612;2023-04-08T01:01:01;100271.31;;;6.13;89.10
11672;BME280;5892;43.412;24.612;2023-04-08T01:03:37;100309.25;;;6.38;89.41
11672;BME280;5892;43.412;24.612;2023-04-08T01:06:14;100164.34;;;5.35;89.37
11672;BME280;5892;43.412;24.612;2023-04-08T01:08:42;100190.44;;;5.36;90.12
11672;BME280;5892;43.412;24.612;2023-04-08T01:11:11;100243.78;;;5.76;90.43
11672;BME280;5892;43.412;24.612;2023-04-08T01:13:41;100302.50;;;6.31;91.28
11672;BME280;5892;43.412;24.612;2023-04-08T01:16:13;100305.00;;;6.27;91.64
11672;BME280;5892;43.412;24.612;2023-04-08T01:18:42;100179.84;;;5.34;91.24
11672;BME280;5892;43.412;24.612;2023-04-08T01:21:10;100290.94;;;6.10;91.69
11672;BME280;5892;43.412;24.612;2023-04-08T01:23:45;100266.53;;;6.00;92.99
11672;BME280;5892;43.412;24.612;2023-04-08T01:26:23;100205.25;;;5.64;93.12
11672;BME280;5892;43.412;24.612;2023-04-08T01:28:52;100305.03;;;6.22;93.22
11672;BME280;5892;43.412;24.612;2023-04-08T01:31:21;100255.16;;;5.83;93.63
11672;BME280;5892;43.412;24.612;2023-04-08T01:33:52;100285.59;;;5.95;94.49
11672;BME280;5892;43.412;24.612;2023-04-08T01:36:22;100195.53;;;5.52;94.59
11672;BME280;5892;43.412;24.612;2023-04-08T01:38:50;100277.38;;;6.05;95.73
11672;BME280;5892;43.412;24.612;2023-04-08T01:41:17;100306.63;;;6.23;96.01
11672;BME280;5892;43.412;24.612;2023-04-08T01:43:47;100296.31;;;6.20;96.52
11672;BME280;5892;43.412;24.612;2023-04-08T01:46:15;100234.53;;;5.77;96.93
11672;BME280;5892;43.412;24.612;2023-04-08T01:48:43;100265.47;;;5.96;96.88
11672;BME280;5892;43.412;24.612;2023-04-08T01:51:14;100263.56;;;5.91;97.04
11672;BME280;5892;43.412;24.612;2023-04-08T01:53:41;100300.69;;;6.21;96.56
11672;BME280;5892;43.412;24.612;2023-04-08T01:56:12;100211.81;;;5.58;96.52
11672;BME280;5892;43.412;24.612;2023-04-08T01:58:42;100297.38;;;6.24;96.49
11672;BME280;5892;43.412;24.612;2023-04-08T02:01:16;100298.00;;;6.16;97.31
11672;BME280;5892;43.412;24.612;2023-04-08T02:03:46;100190.94;;;5.48;97.46
11672;BME280;5892;43.412;24.612;2023-04-08T02:06:16;100307.75;;;6.22;97.18
11672;BME280;5892;43.412;24.612;2023-04-08T02:08:43;100313.66;;;6.29;96.64
11672;BME280;5892;43.412;24.612;2023-04-08T02:11:10;100236.75;;;5.70;96.75
11672;BME280;5892;43.412;24.612;2023-04-08T02:13:37;100286.56;;;6.14;96.41
11672;BME280;5892;43.412;24.612;2023-04-08T02:16:11;100316.94;;;6.31;96.91
11672;BME280;5892;43.412;24.612;2023-04-08T02:18:46;100327.75;;;6.42;96.73
11672;BME280;5892;43.412;24.612;2023-04-08T02:21:21;100310.38;;;6.37;95.93
11672;BME280;5892;43.412;24.612;2023-04-08T02:23:52;100228.75;;;5.93;95.78
11672;BME280;5892;43.412;24.612;2023-04-08T02:26:21;100254.91;;;5.89;95.67
11672;BME280;5892;43.412;24.612;2023-04-08T02:28:51;100217.72;;;5.70;95.83
11672;BME280;5892;43.412;24.612;2023-04-08T02:31:20;100293.84;;;6.24;95.83
11672;BME280;5892;43.412;24.612;2023-04-08T02:33:50;100282.34;;;5.93;96.07
11672;BME280;5892;43.412;24.612;2023-04-08T02:36:18;100224.50;;;5.72;95.88
11672;BME280;5892;43.412;24.612;2023-04-08T02:38:47;100314.19;;;6.36;96.04
11672;BME280;5892;43.412;24.612;2023-04-08T02:41:14;100316.44;;;6.24;95.60
11672;BME280;5892;43.412;24.612;2023-04-08T02:43:41;100319.38;;;6.33;95.32
11672;BME280;5892;43.412;24.612;2023-04-08T02:46:09;100307.19;;;6.25;95.19
11672;BME280;5892;43.412;24.612;2023-04-08T02:48:37;100302.16;;;6.43;94.49
11672;BME280;5892;43.412;24.612;2023-04-08T02:51:06;100205.41;;;5.87;93.61
11672;BME280;5892;43.412;24.612;2023-04-08T02:53:33;100288.09;;;6.30;93.48
11672;BME280;5892;43.412;24.612;2023-04-08T02:56:00;100313.22;;;6.56;92.92
11672;BME280;5892;43.412;24.612;2023-04-08T02:58:27;100222.53;;;5.83;92.46
11672;BME280;5892;43.412;24.612;2023-04-08T03:00:54;100280.81;;;6.21;92.81
11672;BME280;5892;43.412;24.612;2023-04-08T03:03:21;100316.63;;;6.38;92.65
11672;BME280;5892;43.412;24.612;2023-04-08T03:05:53;100246.09;;;6.03;92.37
11672;BME280;5892;43.412;24.612;2023-04-08T03:08:21;100227.69;;;5.89;93.39
11672;BME280;5892;43.412;24.612;2023-04-08T03:10:49;100241.53;;;5.93;93.15
11672;BME280;5892;43.412;24.612;2023-04-08T03:13:17;100233.41;;;5.83;93.13
11672;BME280;5892;43.412;24.612;2023-04-08T03:15:50;100223.16;;;5.70;93.57
11672;BME280;5892;43.412;24.612;2023-04-08T03:18:20;100152.91;;;5.43;93.43
11672;BME280;5892;43.412;24.612;2023-04-08T03:20:47;100288.47;;;6.14;93.81
11672;BME280;5892;43.412;24.612;2023-04-08T03:23:14;100319.69;;;6.26;94.38
11672;BME280;5892;43.412;24.612;2023-04-08T03:25:42;100322.88;;;6.33;94.05
11672;BME280;5892;43.412;24.612;2023-04-08T03:28:09;100322.44;;;6.21;95.04
11672;BME280;5892;43.412;24.612;2023-04-08T03:30:36;100302.63;;;6.16;94.59
11672;BME280;5892;43.412;24.612;2023-04-08T03:33:03;100344.31;;;6.45;93.66
11672;BME280;5892;43.412;24.612;2023-04-08T03:35:32;100304.69;;;6.29;94.09
11672;BME280;5892;43.412;24.612;2023-04-08T03:37:59;100331.25;;;6.47;94.46
11672;BME280;5892;43.412;24.612;2023-04-08T03:40:26;100281.16;;;6.09;94.24
11672;BME280;5892;43.412;24.612;2023-04-08T03:43:15;100273.34;;;5.92;94.44
11672;BME280;5892;43.412;24.612;2023-04-08T03:45:44;100212.63;;;5.58;94.96
11672;BME280;5892;43.412;24.612;2023-04-08T03:48:10;100339.16;;;6.49;95.03
11672;BME280;5892;43.412;24.612;2023-04-08T03:50:38;100341.09;;;6.43;95.22
11672;BME280;5892;43.412;24.612;2023-04-08T03:53:05;100343.34;;;6.31;95.96
11672;BME280;5892;43.412;24.612;2023-04-08T03:55:35;100306.28;;;5.96;95.95
11672;BME280;5892;43.412;24.612;2023-04-08T03:58:02;100338.50;;;6.18;97.22
11672;BME280;5892;43.412;24.612;2023-04-08T04:04:04;100309.44;;;6.08;97.29
11672;BME280;5892;43.412;24.612;2023-04-08T04:06:31;100195.34;;;5.39;97.01
11672;BME280;5892;43.412;24.612;2023-04-08T04:08:58;100340.88;;;6.29;97.42
11672;BME280;5892;43.412;24.612;2023-04-08T04:11:25;100276.66;;;5.84;97.20
11672;BME280;5892;43.412;24.612;2023-04-08T04:13:52;100345.84;;;6.22;97.34
11672;BME280;5892;43.412;24.612;2023-04-08T04:16:20;100344.69;;;6.28;98.01
11672;BME280;5892;43.412;24.612;2023-04-08T04:18:47;100338.50;;;6.18;98.01
11672;BME280;5892;43.412;24.612;2023-04-08T04:21:16;100320.91;;;6.05;97.67
11672;BME280;5892;43.412;24.612;2023-04-08T04:23:43;100344.66;;;6.33;98.07
11672;BME280;5892;43.412;24.612;2023-04-08T04:26:10;100341.38;;;6.42;97.72
11672;BME280;5892;43.412;24.612;2023-04-08T04:28:37;100302.75;;;6.34;95.61
11672;BME280;5892;43.412;24.612;2023-04-08T04:31:04;100343.31;;;6.70;96.09
11672;BME280;5892;43.412;24.612;2023-04-08T04:33:32;100352.56;;;6.74;95.45
11672;BME280;5892;43.412;24.612;2023-04-08T04:35:59;100301.34;;;6.42;94.68
11672;BME280;5892;43.412;24.612;2023-04-08T04:38:28;100354.59;;;6.92;94.15
11672;BME280;5892;43.412;24.612;2023-04-08T04:44:13;100260.81;;;6.41;93.40
11672;BME280;5892;43.412;24.612;2023-04-08T04:46:40;100365.38;;;7.07;92.83
11672;BME280;5892;43.412;24.612;2023-04-08T04:49:07;100319.81;;;6.84;92.46
11672;BME280;5892;43.412;24.612;2023-04-08T04:51:34;100356.16;;;7.03;91.70
11672;BME280;5892;43.412;24.612;2023-04-08T04:54:02;100336.22;;;7.08;91.51
11672;BME280;5892;43.412;24.612;2023-04-08T04:56:29;100283.69;;;6.73;90.91
11672;BME280;5892;43.412;24.612;2023-04-08T04:58:57;100275.25;;;6.70;90.86
11672;BME280;5892;43.412;24.612;2023-04-08T05:01:24;100365.94;;;7.33;91.03
11672;BME280;5892;43.412;24.612;2023-04-08T05:03:53;100365.09;;;7.38;91.14
11672;BME280;5892;43.412;24.612;2023-04-08T05:06:41;100265.13;;;6.75;90.49
11672;BME280;5892;43.412;24.612;2023-04-08T05:09:10;100367.03;;;7.61;89.66
11672;BME280;5892;43.412;24.612;2023-04-08T05:11:37;100246.50;;;6.88;87.99
11672;BME280;5892;43.412;24.612;2023-04-08T05:14:04;100274.41;;;7.03;87.68
11672;BME280;5892;43.412;24.612;2023-04-08T05:16:32;100362.50;;;7.51;88.05
11672;BME280;5892;43.412;24.612;2023-04-08T05:18:59;100296.53;;;7.26;87.45
11672;BME280;5892;43.412;24.612;2023-04-08T05:21:26;100344.72;;;7.54;87.51
11672;BME280;5892;43.412;24.612;2023-04-08T05:23:54;100355.31;;;7.84;87.11
11672;BME280;5892;43.412;24.612;2023-04-08T05:26:23;100280.97;;;7.50;86.18
11672;BME280;5892;43.412;24.612;2023-04-08T05:28:51;100376.09;;;8.65;84.64
11672;BME280;5892;43.412;24.612;2023-04-08T05:31:19;100371.31;;;9.08;82.28
11672;BME280;5892;43.412;24.612;2023-04-08T05:34:03;100329.47;;;8.94;80.56
11672;BME280;5892;43.412;24.612;2023-04-08T05:36:40;100234.28;;;8.82;77.96
11672;BME280;5892;43.412;24.612;2023-04-08T05:39:08;100377.19;;;9.75;76.41
11672;BME280;5892;43.412;24.612;2023-04-08T05:41:37;100271.31;;;9.34;74.84
11672;BME280;5892;43.412;24.612;2023-04-08T05:44:04;100318.41;;;9.45;73.91
11672;BME280;5892;43.412;24.612;2023-04-08T05:46:39;100378.03;;;10.03;73.72
11672;BME280;5892;43.412;24.612;2023-04-08T05:49:09;100327.56;;;9.68;73.00
11672;BME280;5892;43.412;24.612;2023-04-08T05:51:36;100359.16;;;10.29;71.82
11672;BME280;5892;43.412;24.612;2023-04-08T05:54:04;100374.50;;;10.66;70.98
11672;BME280;5892;43.412;24.612;2023-04-08T05:56:31;100350.44;;;10.62;69.59
11672;BME280;5892;43.412;24.612;2023-04-08T05:59:00;100314.69;;;10.45;69.46
11672;BME280;5892;43.412;24.612;2023-04-08T06:01:27;100299.25;;;10.49;68.70
11672;BME280;5892;43.412;24.612;2023-04-08T06:03:54;100347.03;;;11.24;68.30
11672;BME280;5892;43.412;24.612;2023-04-08T06:06:21;100372.81;;;11.45;67.00
11672;BME280;5892;43.412;24.612;2023-04-08T06:08:48;100362.66;;;11.23;65.78
11672;BME280;5892;43.412;24.612;2023-04-08T06:11:17;100343.78;;;11.22;65.62
11672;BME280;5892;43.412;24.612;2023-04-08T06:13:43;100278.38;;;10.84;64.30
11672;BME280;5892;43.412;24.612;2023-04-08T06:16:13;100348.84;;;11.37;64.42
11672;BME280;5892;43.412;24.612;2023-04-08T06:18:41;100376.41;;;11.54;64.89
11672;BME280;5892;43.412;24.612;2023-04-08T06:21:09;100364.75;;;11.48;64.69
11672;BME280;5892;43.412;24.612;2023-04-08T06:23:37;100390.94;;;11.55;64.44
11672;BME280;5892;43.412;24.612;2023-04-08T06:26:03;100347.09;;;11.41;63.34
11672;BME280;5892;43.412;24.612;2023-04-08T06:28:31;100388.88;;;11.60;63.19
11672;BME280;5892;43.412;24.612;2023-04-08T06:30:58;100319.84;;;11.44;61.64
11672;BME280;5892;43.412;24.612;2023-04-08T06:36:27;100377.81;;;11.21;62.68
11672;BME280;5892;43.412;24.612;2023-04-08T06:38:55;100357.19;;;11.01;63.98
11672;BME280;5892;43.412;24.612;2023-04-08T06:41:49;100377.94;;;11.16;63.63
11672;BME280;5892;43.412;24.612;2023-04-08T06:44:16;100367.22;;;11.05;63.29
11672;BME280;5892;43.412;24.612;2023-04-08T06:46:43;100303.09;;;10.48;64.43
11672;BME280;5892;43.412;24.612;2023-04-08T06:49:11;100378.41;;;11.09;64.81
11672;BME280;5892;43.412;24.612;2023-04-08T06:51:43;100357.50;;;10.99;63.74
11672;BME280;5892;43.412;24.612;2023-04-08T06:54:10;100261.78;;;10.36;63.88
11672;BME280;5892;43.412;24.612;2023-04-08T06:56:44;100351.66;;;10.92;64.37
11672;BME280;5892;43.412;24.612;2023-04-08T06:59:11;100347.25;;;10.83;65.83
11672;BME280;5892;43.412;24.612;2023-04-08T07:01:38;100349.28;;;10.99;65.54
11672;BME280;5892;43.412;24.612;2023-04-08T07:04:06;100355.19;;;11.15;65.27
11672;BME280;5892;43.412;24.612;2023-04-08T07:06:33;100360.16;;;11.35;64.03
11672;BME280;5892;43.412;24.612;2023-04-08T07:09:01;100359.56;;;10.94;63.70
11672;BME280;5892;43.412;24.612;2023-04-08T07:11:28;100277.59;;;10.61;64.31
11672;BME280;5892;43.412;24.612;2023-04-08T07:13:55;100301.50;;;10.92;63.89
11672;BME280;5892;43.412;24.612;2023-04-08T07:16:22;100374.09;;;11.47;64.10
11672;BME280;5892;43.412;24.612;2023-04-08T07:18:50;100378.59;;;11.43;63.41
11672;BME280;5892;43.412;24.612;2023-04-08T07:21:18;100352.13;;;10.94;64.81
11672;BME280;5892;43.412;24.612;2023-04-08T07:23:45;100366.91;;;11.29;65.18
11672;BME280;5892;43.412;24.612;2023-04-08T07:26:14;100373.41;;;11.42;65.47
11672;BME280;5892;43.412;24.612;2023-04-08T07:28:42;100299.22;;;10.94;65.41
11672;BME280;5892;43.412;24.612;2023-04-08T07:31:10;100363.03;;;11.30;65.91
11672;BME280;5892;43.412;24.612;2023-04-08T07:33:38;100317.81;;;10.75;64.31
11672;BME280;5892;43.412;24.612;2023-04-08T07:36:07;100332.72;;;10.82;66.54
11672;BME280;5892;43.412;24.612;2023-04-08T07:42:15;100313.50;;;10.60;65.12
11672;BME280;5892;43.412;24.612;2023-04-08T07:44:42;100391.84;;;11.19;65.53
11672;BME280;5892;43.412;24.612;2023-04-08T07:47:47;100207.22;;;10.48;64.54
11672;BME280;5892;43.412;24.612;2023-04-08T07:50:35;100350.91;;;11.62;64.40
11672;BME280;5892;43.412;24.612;2023-04-08T07:53:02;100397.31;;;12.03;63.95
11672;BME280;5892;43.412;24.612;2023-04-08T07:55:32;100377.31;;;12.11;63.42
11672;BME280;5892;43.412;24.612;2023-04-08T07:58:01;100317.78;;;11.89;63.18
11672;BME280;5892;43.412;24.612;2023-04-08T08:00:28;100398.38;;;12.42;63.52
11672;BME280;5892;43.412;24.612;2023-04-08T08:02:55;100346.00;;;12.47;61.18
11672;BME280;5892;43.412;24.612;2023-04-08T08:05:22;100371.56;;;12.99;59.95
11672;BME280;5892;43.412;24.612;2023-04-08T08:07:50;100395.66;;;12.93;59.92
11672;BME280;5892;43.412;24.612;2023-04-08T08:10:17;100354.75;;;12.49;59.50
11672;BME280;5892;43.412;24.612;2023-04-08T08:12:44;100408.47;;;12.98;59.24
11672;BME280;5892;43.412;24.612;2023-04-08T08:15:17;100397.25;;;12.51;60.78
11672;BME280;5892;43.412;24.612;2023-04-08T08:17:44;100398.88;;;12.52;61.69
11672;BME280;5892;43.412;24.612;2023-04-08T08:20:40;100348.25;;;12.27;59.66
11672;BME280;5892;43.412;24.612;2023-04-08T08:23:06;100412.13;;;12.42;61.57
11672;BME280;5892;43.412;24.612;2023-04-08T08:25:33;100351.00;;;12.27;61.10
11672;BME280;5892;43.412;24.612;2023-04-08T08:28:00;100348.13;;;12.58;60.31
11672;BME280;5892;43.412;24.612;2023-04-08T08:30:29;100408.78;;;12.79;59.22
11672;BME280;5892;43.412;24.612;2023-04-08T08:32:58;100418.00;;;12.83;60.40
11672;BME280;5892;43.412;24.612;2023-04-08T08:35:39;100291.38;;;12.28;59.72
11672;BME280;5892;43.412;24.612;2023-04-08T08:38:06;100393.13;;;13.23;58.46
11672;BME280;5892;43.412;24.612;2023-04-08T08:40:33;100419.78;;;13.48;58.12
11672;BME280;5892;43.412;24.612;2023-04-08T08:43:00;100402.59;;;13.51;56.46
11672;BME280;5892;43.412;24.612;2023-04-08T08:45:30;100360.09;;;13.23;57.59
11672;BME280;5892;43.412;24.612;2023-04-08T08:47:59;100395.03;;;13.86;57.43
11672;BME280;5892;43.412;24.612;2023-04-08T08:50:27;100393.97;;;13.61;56.17
11672;BME280;5892;43.412;24.612;2023-04-08T08:52:54;100338.41;;;13.12;56.41
11672;BME280;5892;43.412;24.612;2023-04-08T08:55:21;100407.56;;;13.75;56.28
11672;BME280;5892;43.412;24.612;2023-04-08T08:57:49;100339.94;;;13.48;56.80
11672;BME280;5892;43.412;24.612;2023-04-08T09:00:19;100412.47;;;13.98;57.51
11672;BME280;5892;43.412;24.612;2023-04-08T09:06:35;100419.78;;;13.94;54.57
11672;BME280;5892;43.412;24.612;2023-04-08T09:09:02;100380.16;;;13.06;55.08
11672;BME280;5892;43.412;24.612;2023-04-08T09:11:30;100422.69;;;13.43;55.10
11672;BME280;5892;43.412;24.612;2023-04-08T09:13:58;100374.13;;;13.30;55.59
11672;BME280;5892;43.412;24.612;2023-04-08T09:16:25;100412.56;;;13.81;55.81
11672;BME280;5892;43.412;24.612;2023-04-08T09:18:53;100387.34;;;13.62;55.46
11672;BME280;5892;43.412;24.612;2023-04-08T09:21:22;100408.44;;;13.41;55.29
11672;BME280;5892;43.412;24.612;2023-04-08T09:24:26;100259.69;;;12.30;56.16
11672;BME280;5892;43.412;24.612;2023-04-08T09:26:53;100415.25;;;13.43;55.99
11672;BME280;5892;43.412;24.612;2023-04-08T09:29:22;100341.34;;;12.82;56.12
11672;BME280;5892;43.412;24.612;2023-04-08T09:31:52;100390.00;;;13.24;56.20
11672;BME280;5892;43.412;24.612;2023-04-08T09:34:23;100376.69;;;13.52;55.28
11672;BME280;5892;43.412;24.612;2023-04-08T09:36:52;100372.00;;;13.52;51.60
11672;BME280;5892;43.412;24.612;2023-04-08T09:39:21;100351.84;;;13.23;51.86
11672;BME280;5892;43.412;24.612;2023-04-08T09:41:49;100421.41;;;13.32;52.85
11672;BME280;5892;43.412;24.612;2023-04-08T09:44:18;100425.78;;;13.50;53.75
11672;BME280;5892;43.412;24.612;2023-04-08T09:46:55;100400.75;;;13.72;53.76
11672;BME280;5892;43.412;24.612;2023-04-08T09:49:29;100393.59;;;13.80;52.55
11672;BME280;5892;43.412;24.612;2023-04-08T09:52:06;100379.78;;;13.42;51.36
11672;BME280;5892;43.412;24.612;2023-04-08T09:54:52;100420.09;;;13.46;51.99
11672;BME280;5892;43.412;24.612;2023-04-08T09:57:29;100362.50;;;12.98;51.23
11672;BME280;5892;43.412;24.612;2023-04-08T10:00:03;100349.41;;;12.78;51.82
11672;BME280;5892;43.412;24.612;2023-04-08T10:02:35;100413.00;;;13.28;50.78
11672;BME280;5892;43.412;24.612;2023-04-08T10:05:21;100371.09;;;13.23;51.27
11672;BME280;5892;43.412;24.612;2023-04-08T10:07:49;100410.81;;;13.68;51.79
11672;BME280;5892;43.412;24.612;2023-04-08T10:10:18;100395.38;;;13.84;49.57
11672;BME280;5892;43.412;24.612;2023-04-08T10:12:45;100417.34;;;14.02;49.39
11672;BME280;5892;43.412;24.612;2023-04-08T10:15:23;100418.34;;;14.26;48.70
11672;BME280;5892;43.412;24.612;2023-04-08T10:17:51;100421.47;;;14.54;49.20
11672;BME280;5892;43.412;24.612;2023-04-08T10:20:41;100408.84;;;14.74;46.78
11672;BME280;5892;43.412;24.612;2023-04-08T10:23:10;100427.41;;;15.27;47.29
11672;BME280;5892;43.412;24.612;2023-04-08T10:25:40;100326.53;;;14.97;47.58
11672;BME280;5892;43.412;24.612;2023-04-08T10:28:24;100403.13;;;15.65;47.06
11672;BME280;5892;43.412;24.612;2023-04-08T10:30:52;100413.06;;;15.13;48.40
11672;BME280;5892;43.412;24.612;2023-04-08T10:33:21;100412.94;;;14.89;48.58
11672;BME280;5892;43.412;24.612;2023-04-08T10:35:52;100419.34;;;14.80;50.18
11672;BME280;5892;43.412;24.612;2023-04-08T10:38:19;100383.13;;;15.03;49.04
11672;BME280;5892;43.412;24.612;2023-04-08T10:40:48;100362.75;;;14.74;47.46
11672;BME280;5892;43.412;24.612;2023-04-08T10:43:16;100382.47;;;15.06;46.90
11672;BME280;5892;43.412;24.612;2023-04-08T10:45:43;100371.22;;;15.11;47.11
11672;BME280;5892;43.412;24.612;2023-04-08T10:48:16;100384.41;;;15.38;47.43
11672;BME280;5892;43.412;24.612;2023-04-08T10:50:50;100354.66;;;15.23;47.88
11672;BME280;5892;43.412;24.612;2023-04-08T10:54:58;100384.91;;;15.19;48.82
11672;BME280;5892;43.412;24.612;2023-04-08T10:56:31;100408.56;;;14.88;48.82
11672;BME280;5892;43.412;24.612;2023-04-08T10:58:58;100384.16;;;14.27;50.83
11672;BME280;5892;43.412;24.612;2023-04-08T11:01:25;100329.94;;;13.81;51.79
11672;BME280;5892;43.412;24.612;2023-04-08T11:03:53;100370.38;;;14.27;51.08
11672;BME280;5892;43.412;24.612;2023-04-08T11:06:20;100384.09;;;14.36;50.94
11672;BME280;5892;43.412;24.612;2023-04-08T11:08:49;100378.53;;;14.45;50.79
11672;BME280;5892;43.412;24.612;2023-04-08T11:11:18;100303.84;;;14.08;50.72
11672;BME280;5892;43.412;24.612;2023-04-08T11:13:47;100331.63;;;14.24;50.09
11672;BME280;5892;43.412;24.612;2023-04-08T11:16:14;100360.19;;;14.90;50.27
11672;BME280;5892;43.412;24.612;2023-04-08T11:18:41;100370.09;;;15.24;49.93
11672;BME280;5892;43.412;24.612;2023-04-08T11:21:08;100376.91;;;15.39;49.02
11672;BME280;5892;43.412;24.612;2023-04-08T11:23:35;100388.41;;;15.61;48.49
11672;BME280;5892;43.412;24.612;2023-04-08T11:26:17;100346.03;;;14.92;47.68
11672;BME280;5892;43.412;24.612;2023-04-08T11:28:44;100369.16;;;15.20;49.02
11672;BME280;5892;43.412;24.612;2023-04-08T11:31:15;100367.16;;;15.41;48.15
11672;BME280;5892;43.412;24.612;2023-04-08T11:33:46;100291.97;;;15.23;46.88
11672;BME280;5892;43.412;24.612;2023-04-08T11:36:14;100367.66;;;15.55;46.83
11672;BME280;5892;43.412;24.612;2023-04-08T11:38:43;100370.69;;;15.62;47.70
11672;BME280;5892;43.412;24.612;2023-04-08T11:41:12;100355.50;;;15.68;47.22
11672;BME280;5892;43.412;24.612;2023-04-08T11:43:50;100337.78;;;15.70;46.88
11672;BME280;5892;43.412;24.612;2023-04-08T11:46:19;100360.69;;;15.82;46.73
11672;BME280;5892;43.412;24.612;2023-04-08T11:49:00;100350.44;;;15.83;44.96
11672;BME280;5892;43.412;24.612;2023-04-08T11:51:27;100353.22;;;15.83;45.32
11672;BME280;5892;43.412;24.612;2023-04-08T11:53:54;100367.16;;;15.74;45.48
11672;BME280;5892;43.412;24.612;2023-04-08T11:56:22;100298.75;;;15.14;46.26
11672;BME280;5892;43.412;24.612;2023-04-08T11:58:49;100366.44;;;15.32;47.29
11672;BME280;5892;43.412;24.612;2023-04-08T12:01:16;100349.47;;;15.09;47.84
11672;BME280;5892;43.412;24.612;2023-04-08T12:03:55;100362.28;;;15.26;47.53
11672;BME280;5892;43.412;24.612;2023-04-08T12:06:22;100334.03;;;15.08;47.43
11672;BME280;5892;43.412;24.612;2023-04-08T12:08:49;100307.25;;;15.09;47.19
11672;BME280;5892;43.412;24.612;2023-04-08T12:11:16;100275.31;;;15.20;46.74
11672;BME280;5892;43.412;24.612;2023-04-08T12:13:43;100347.56;;;16.03;45.63
11672;BME280;5892;43.412;24.612;2023-04-08T12:16:10;100346.28;;;15.77;44.58
11672;BME280;5892;43.412;24.612;2023-04-08T12:18:39;100271.16;;;15.02;46.15
11672;BME280;5892;43.412;24.612;2023-04-08T12:21:08;100343.44;;;15.28;46.26
11672;BME280;5892;43.412;24.612;2023-04-08T12:23:35;100339.06;;;15.39;46.28
11672;BME280;5892;43.412;24.612;2023-04-08T12:26:02;100333.84;;;15.71;45.98
11672;BME280;5892;43.412;24.612;2023-04-08T12:28:30;100341.13;;;15.99;45.78
11672;BME280;5892;43.412;24.612;2023-04-08T12:30:57;100292.88;;;15.97;44.98
11672;BME280;5892;43.412;24.612;2023-04-08T12:33:24;100296.34;;;15.82;45.25
11672;BME280;5892;43.412;24.612;2023-04-08T12:35:51;100287.81;;;15.87;45.36
11672;BME280;5892;43.412;24.612;2023-04-08T12:38:19;100228.31;;;14.83;45.94
11672;BME280;5892;43.412;24.612;2023-04-08T12:40:46;100301.22;;;14.95;47.97
11672;BME280;5892;43.412;24.612;2023-04-08T12:43:13;100254.09;;;15.00;47.05
11672;BME280;5892;43.412;24.612;2023-04-08T12:45:40;100309.78;;;15.14;46.73
11672;BME280;5892;43.412;24.612;2023-04-08T12:48:07;100308.38;;;15.41;47.24
11672;BME280;5892;43.412;24.612;2023-04-08T12:50:35;100292.34;;;15.34;47.00
11672;BME280;5892;43.412;24.612;2023-04-08T12:53:01;100283.69;;;15.23;46.78
11672;BME280;5892;43.412;24.612;2023-04-08T12:55:30;100317.97;;;15.67;46.19
11672;BME280;5892;43.412;24.612;2023-04-08T12:57:57;100306.47;;;15.53;46.08
11672;BME280;5892;43.412;24.612;2023-04-08T13:00:23;100291.06;;;15.19;47.08
11672;BME280;5892;43.412;24.612;2023-04-08T13:02:50;100290.81;;;15.57;46.91
11672;BME280;5892;43.412;24.612;2023-04-08T13:05:17;100275.16;;;15.61;46.17
11672;BME280;5892;43.412;24.612;2023-04-08T13:07:45;100313.81;;;15.61;44.94
11672;BME280;5892;43.412;24.612;2023-04-08T13:10:12;100299.31;;;15.77;44.08
11672;BME280;5892;43.412;24.612;2023-04-08T13:12:40;100288.53;;;15.59;45.07
11672;BME280;5892;43.412;24.612;2023-04-08T13:15:08;100290.19;;;14.95;46.68
11672;BME280;5892;43.412;24.612;2023-04-08T13:17:35;100273.75;;;14.86;47.79
11672;BME280;5892;43.412;24.612;2023-04-08T13:20:02;100249.50;;;15.04;47.30
11672;BME280;5892;43.412;24.612;2023-04-08T13:22:29;100268.41;;;15.26;45.47
11672;BME280;5892;43.412;24.612;2023-04-08T13:24:58;100263.16;;;15.33;46.01